sensor_id;sensor_type;location;lat;lon;timestamp;temperature;humidity
46336;DHT22;31365;48.858;8.530;2024-03-25T00:00:10;6.00;99.90
46336;DHT22;31365;48.858;8.530;2024-03-25T00:02:38;6.10;99.90
46336;DHT22;31365;48.858;8.530;2024-03-25T00:05:07;6.10;99.90
46336;DHT22;31365;48.858;8.530;2024-03-25T00:07:37;6.10;99.90
46336;DHT22;31365;48.858;8.530;2024-03-25T00:10:04;6.10;99.90
46336;DHT22;31365;48.858;8.530;2024-03-25T00:12:34;6.00;99.90
46336;DHT22;31365;48.858;8.530;2024-03-25T00:15:01;6.10;99.90
46336;DHT22;31365;48.858;8.530;2024-03-25T00:17:29;6.10;99.90
46336;DHT22;31365;48.858;8.530;2024-03-25T00:19:55;6.10;99.90
46336;DHT22;31365;48.858;8.530;2024-03-25T00:22:25;6.00;99.90
46336;DHT22;31365;48.858;8.530;2024-03-25T00:24:52;5.90;99.90
46336;DHT22;31365;48.858;8.530;2024-03-25T00:27:20;6.00;99.90
46336;DHT22;31365;48.858;8.530;2024-03-25T00:29:47;6.00;99.90
46336;DHT22;31365;48.858;8.530;2024-03-25T00:32:14;6.00;99.90
46336;DHT22;31365;48.858;8.530;2024-03-25T00:34:40;6.00;99.90
46336;DHT22;31365;48.858;8.530;2024-03-25T00:37:08;6.00;99.90
46336;DHT22;31365;48.858;8.530;2024-03-25T00:39:36;6.00;99.90
46336;DHT22;31365;48.858;8.530;2024-03-25T00:42:04;6.00;99.90
46336;DHT22;31365;48.858;8.530;2024-03-25T00:44:31;6.00;99.90
46336;DHT22;31365;48.858;8.530;2024-03-25T00:46:58;6.00;99.90
46336;DHT22;31365;48.858;8.530;2024-03-25T00:49:24;6.00;99.90
46336;DHT22;31365;48.858;8.530;2024-03-25T00:51:52;6.00;99.90
46336;DHT22;31365;48.858;8.530;2024-03-25T00:54:19;6.00;99.90
46336;DHT22;31365;48.858;8.530;2024-03-25T00:56:48;6.00;99.90
46336;DHT22;31365;48.858;8.530;2024-03-25T00:59:14;6.00;99.90
46336;DHT22;31365;48.858;8.530;2024-03-25T01:01:42;6.00;99.90
46336;DHT22;31365;48.858;8.530;2024-03-25T01:04:09;6.00;99.90
46336;DHT22;31365;48.858;8.530;2024-03-25T01:06:36;6.00;99.90
46336;DHT22;31365;48.858;8.530;2024-03-25T01:09:03;6.00;99.90
46336;DHT22;31365;48.858;8.530;2024-03-25T01:11:32;6.00;99.90
46336;DHT22;31365;48.858;8.530;2024-03-25T01:14:00;6.00;99.90
46336;DHT22;31365;48.858;8.530;2024-03-25T01:16:28;5.90;99.90
46336;DHT22;31365;48.858;8.530;2024-03-25T01:18:54;6.00;99.90
46336;DHT22;31365;48.858;8.530;2024-03-25T01:21:22;6.00;99.90
46336;DHT22;31365;48.858;8.530;2024-03-25T01:23:48;5.90;99.90
46336;DHT22;31365;48.858;8.530;2024-03-25T01:26:17;6.00;99.90
46336;DHT22;31365;48.858;8.530;2024-03-25T01:28:43;5.90;99.90
46336;DHT22;31365;48.858;8.530;2024-03-25T01:31:12;6.00;99.90
46336;DHT22;31365;48.858;8.530;2024-03-25T01:33:38;6.00;99.90
46336;DHT22;31365;48.858;8.530;2024-03-25T01:36:06;6.00;99.90
46336;DHT22;31365;48.858;8.530;2024-03-25T01:38:33;6.00;99.90
46336;DHT22;31365;48.858;8.530;2024-03-25T01:41:07;6.00;99.90
46336;DHT22;31365;48.858;8.530;2024-03-25T01:43:34;6.00;99.90
46336;DHT22;31365;48.858;8.530;2024-03-25T01:46:02;5.90;99.90
46336;DHT22;31365;48.858;8.530;2024-03-25T01:48:31;5.90;99.90
46336;DHT22;31365;48.858;8.530;2024-03-25T01:51:00;5.90;99.90
46336;DHT22;31365;48.858;8.530;2024-03-25T01:53:29;6.00;99.90
46336;DHT22;31365;48.858;8.530;2024-03-25T01:55:58;6.00;99.90
46336;DHT22;31365;48.858;8.530;2024-03-25T01:58:25;6.00;99.90
46336;DHT22;31365;48.858;8.530;2024-03-25T02:00:54;6.00;99.90
46336;DHT22;31365;48.858;8.530;2024-03-25T02:03:22;5.90;99.90
46336;DHT22;31365;48.858;8.530;2024-03-25T02:05:55;5.90;99.90
46336;DHT22;31365;48.858;8.530;2024-03-25T02:08:26;5.90;99.90
46336;DHT22;31365;48.858;8.530;2024-03-25T02:10:55;5.90;99.90
46336;DHT22;31365;48.858;8.530;2024-03-25T02:13:22;5.90;99.90
46336;DHT22;31365;48.858;8.530;2024-03-25T02:15:50;5.90;99.90
46336;DHT22;31365;48.858;8.530;2024-03-25T02:18:17;5.90;99.90
46336;DHT22;31365;48.858;8.530;2024-03-25T02:20:45;5.90;99.90
46336;DHT22;31365;48.858;8.530;2024-03-25T02:23:14;5.90;99.90
46336;DHT22;31365;48.858;8.530;2024-03-25T02:25:42;5.90;99.90
46336;DHT22;31365;48.858;8.530;2024-03-25T02:28:11;5.90;99.90
46336;DHT22;31365;48.858;8.530;2024-03-25T02:30:38;5.90;99.90
46336;DHT22;31365;48.858;8.530;2024-03-25T02:33:06;5.90;99.90
46336;DHT22;31365;48.858;8.530;2024-03-25T02:35:34;5.90;99.90
46336;DHT22;31365;48.858;8.530;2024-03-25T02:38:02;5.90;99.90
46336;DHT22;31365;48.858;8.530;2024-03-25T02:40:30;5.90;99.90
46336;DHT22;31365;48.858;8.530;2024-03-25T02:42:57;5.90;99.90
46336;DHT22;31365;48.858;8.530;2024-03-25T02:45:26;5.90;99.90
46336;DHT22;31365;48.858;8.530;2024-03-25T02:47:53;5.90;99.90
46336;DHT22;31365;48.858;8.530;2024-03-25T02:50:20;5.90;99.90
46336;DHT22;31365;48.858;8.530;2024-03-25T02:52:47;5.90;99.90
46336;DHT22;31365;48.858;8.530;2024-03-25T02:55:15;5.90;99.90
46336;DHT22;31365;48.858;8.530;2024-03-25T02:57:41;5.90;99.90
46336;DHT22;31365;48.858;8.530;2024-03-25T03:00:10;5.80;99.90
46336;DHT22;31365;48.858;8.530;2024-03-25T03:02:38;5.90;99.90
46336;DHT22;31365;48.858;8.530;2024-03-25T03:05:06;5.90;99.90
46336;DHT22;31365;48.858;8.530;2024-03-25T03:07:34;5.90;99.90
46336;DHT22;31365;48.858;8.530;2024-03-25T03:10:01;5.90;99.90
46336;DHT22;31365;48.858;8.530;2024-03-25T03:12:28;5.90;99.90
46336;DHT22;31365;48.858;8.530;2024-03-25T03:14:55;5.90;99.90
46336;DHT22;31365;48.858;8.530;2024-03-25T03:17:22;5.90;99.90
46336;DHT22;31365;48.858;8.530;2024-03-25T03:19:51;5.90;99.90
46336;DHT22;31365;48.858;8.530;2024-03-25T03:22:17;5.80;99.90
46336;DHT22;31365;48.858;8.530;2024-03-25T03:24:45;5.80;99.90
46336;DHT22;31365;48.858;8.530;2024-03-25T03:27:12;5.80;99.90
46336;DHT22;31365;48.858;8.530;2024-03-25T03:29:40;5.80;99.90
46336;DHT22;31365;48.858;8.530;2024-03-25T03:32:06;5.80;99.90
46336;DHT22;31365;48.858;8.530;2024-03-25T03:34:34;5.80;99.90
46336;DHT22;31365;48.858;8.530;2024-03-25T03:37:02;5.80;99.90
46336;DHT22;31365;48.858;8.530;2024-03-25T03:39:29;5.80;99.90
46336;DHT22;31365;48.858;8.530;2024-03-25T03:41:56;5.80;99.90
46336;DHT22;31365;48.858;8.530;2024-03-25T03:44:24;5.80;99.90
46336;DHT22;31365;48.858;8.530;2024-03-25T03:46:50;5.80;99.90
46336;DHT22;31365;48.858;8.530;2024-03-25T03:49:18;5.90;99.90
46336;DHT22;31365;48.858;8.530;2024-03-25T03:51:44;5.90;99.90
46336;DHT22;31365;48.858;8.530;2024-03-25T03:54:13;5.90;99.90
46336;DHT22;31365;48.858;8.530;2024-03-25T03:56:41;5.90;99.90
46336;DHT22;31365;48.858;8.530;2024-03-25T03:59:08;5.90;99.90
46336;DHT22;31365;48.858;8.530;2024-03-25T04:01:35;5.90;99.90
46336;DHT22;31365;48.858;8.530;2024-03-25T04:04:02;5.90;99.90
46336;DHT22;31365;48.858;8.530;2024-03-25T04:06:29;6.00;99.90
46336;DHT22;31365;48.858;8.530;2024-03-25T04:08:57;6.00;99.90
46336;DHT22;31365;48.858;8.530;2024-03-25T04:11:25;6.00;99.90
46336;DHT22;31365;48.858;8.530;2024-03-25T04:13:52;6.00;99.90
46336;DHT22;31365;48.858;8.530;2024-03-25T04:16:19;6.00;99.90
46336;DHT22;31365;48.858;8.530;2024-03-25T04:18:49;6.00;99.90
46336;DHT22;31365;48.858;8.530;2024-03-25T04:21:16;6.00;99.90
46336;DHT22;31365;48.858;8.530;2024-03-25T04:23:45;5.90;99.90
46336;DHT22;31365;48.858;8.530;2024-03-25T04:26:12;5.90;99.90
46336;DHT22;31365;48.858;8.530;2024-03-25T04:28:41;6.00;99.90
46336;DHT22;31365;48.858;8.530;2024-03-25T04:31:08;6.00;99.90
46336;DHT22;31365;48.858;8.530;2024-03-25T04:33:36;6.00;99.90
46336;DHT22;31365;48.858;8.530;2024-03-25T04:36:02;6.00;99.90
46336;DHT22;31365;48.858;8.530;2024-03-25T04:38:30;6.00;99.90
46336;DHT22;31365;48.858;8.530;2024-03-25T04:40:57;6.00;99.90
46336;DHT22;31365;48.858;8.530;2024-03-25T04:43:24;5.90;99.90
46336;DHT22;31365;48.858;8.530;2024-03-25T04:45:52;5.90;99.90
46336;DHT22;31365;48.858;8.530;2024-03-25T04:48:19;5.90;99.90
46336;DHT22;31365;48.858;8.530;2024-03-25T04:50:45;5.90;99.90
46336;DHT22;31365;48.858;8.530;2024-03-25T04:53:13;5.90;99.90
46336;DHT22;31365;48.858;8.530;2024-03-25T04:55:40;5.90;99.90
46336;DHT22;31365;48.858;8.530;2024-03-25T04:58:06;5.90;99.90
46336;DHT22;31365;48.858;8.530;2024-03-25T05:00:33;5.90;99.90
46336;DHT22;31365;48.858;8.530;2024-03-25T05:03:01;5.90;99.90
46336;DHT22;31365;48.858;8.530;2024-03-25T05:05:28;5.90;99.90
46336;DHT22;31365;48.858;8.530;2024-03-25T05:07:55;5.90;99.90
46336;DHT22;31365;48.858;8.530;2024-03-25T05:10:22;5.80;99.90
46336;DHT22;31365;48.858;8.530;2024-03-25T05:12:48;5.80;99.90
46336;DHT22;31365;48.858;8.530;2024-03-25T05:15:15;5.80;99.90
46336;DHT22;31365;48.858;8.530;2024-03-25T05:17:42;5.80;99.90
46336;DHT22;31365;48.858;8.530;2024-03-25T05:20:11;5.80;99.90
46336;DHT22;31365;48.858;8.530;2024-03-25T05:22:38;5.80;99.90
46336;DHT22;31365;48.858;8.530;2024-03-25T05:25:05;5.80;99.90
46336;DHT22;31365;48.858;8.530;2024-03-25T05:27:32;5.80;99.90
46336;DHT22;31365;48.858;8.530;2024-03-25T05:29:59;5.80;99.90
46336;DHT22;31365;48.858;8.530;2024-03-25T05:32:26;5.90;99.90
46336;DHT22;31365;48.858;8.530;2024-03-25T05:34:52;5.80;99.90
46336;DHT22;31365;48.858;8.530;2024-03-25T05:37:21;5.80;99.90
46336;DHT22;31365;48.858;8.530;2024-03-25T05:39:47;5.80;99.90
46336;DHT22;31365;48.858;8.530;2024-03-25T05:42:14;5.80;99.90
46336;DHT22;31365;48.858;8.530;2024-03-25T05:44:41;5.80;99.90
46336;DHT22;31365;48.858;8.530;2024-03-25T05:47:07;5.80;99.90
46336;DHT22;31365;48.858;8.530;2024-03-25T05:49:34;5.80;99.90
46336;DHT22;31365;48.858;8.530;2024-03-25T05:52:02;5.80;99.90
46336;DHT22;31365;48.858;8.530;2024-03-25T05:54:30;5.80;99.90
46336;DHT22;31365;48.858;8.530;2024-03-25T05:56:59;5.80;99.90
46336;DHT22;31365;48.858;8.530;2024-03-25T05:59:27;5.80;99.90
46336;DHT22;31365;48.858;8.530;2024-03-25T06:01:54;5.80;99.90
46336;DHT22;31365;48.858;8.530;2024-03-25T06:04:22;5.80;99.90
46336;DHT22;31365;48.858;8.530;2024-03-25T06:06:49;5.80;99.90
46336;DHT22;31365;48.858;8.530;2024-03-25T06:09:15;5.90;99.90
46336;DHT22;31365;48.858;8.530;2024-03-25T06:11:43;5.90;99.90
46336;DHT22;31365;48.858;8.530;2024-03-25T06:14:11;5.90;99.90
46336;DHT22;31365;48.858;8.530;2024-03-25T06:16:38;5.90;99.90
46336;DHT22;31365;48.858;8.530;2024-03-25T06:19:04;5.90;99.90
46336;DHT22;31365;48.858;8.530;2024-03-25T06:21:31;5.90;99.90
46336;DHT22;31365;48.858;8.530;2024-03-25T06:23:57;5.90;99.90
46336;DHT22;31365;48.858;8.530;2024-03-25T06:26:24;6.00;99.90
46336;DHT22;31365;48.858;8.530;2024-03-25T06:28:53;6.00;99.90
46336;DHT22;31365;48.858;8.530;2024-03-25T06:31:19;6.10;99.90
46336;DHT22;31365;48.858;8.530;2024-03-25T06:34:05;6.10;99.90
46336;DHT22;31365;48.858;8.530;2024-03-25T06:36:41;6.20;99.90
46336;DHT22;31365;48.858;8.530;2024-03-25T06:39:08;6.30;99.90
46336;DHT22;31365;48.858;8.530;2024-03-25T06:41:34;6.40;99.90
46336;DHT22;31365;48.858;8.530;2024-03-25T06:44:02;6.50;99.90
46336;DHT22;31365;48.858;8.530;2024-03-25T06:46:28;6.50;99.90
46336;DHT22;31365;48.858;8.530;2024-03-25T06:48:55;6.50;99.90
46336;DHT22;31365;48.858;8.530;2024-03-25T06:51:23;6.60;99.90
46336;DHT22;31365;48.858;8.530;2024-03-25T06:53:50;6.70;99.90
46336;DHT22;31365;48.858;8.530;2024-03-25T06:56:18;6.70;99.90
46336;DHT22;31365;48.858;8.530;2024-03-25T06:58:45;6.70;99.90
46336;DHT22;31365;48.858;8.530;2024-03-25T07:01:13;6.90;99.90
46336;DHT22;31365;48.858;8.530;2024-03-25T07:03:39;7.00;99.90
46336;DHT22;31365;48.858;8.530;2024-03-25T07:06:06;7.00;99.90
46336;DHT22;31365;48.858;8.530;2024-03-25T07:08:33;7.00;99.90
46336;DHT22;31365;48.858;8.530;2024-03-25T07:10:59;6.90;99.90
46336;DHT22;31365;48.858;8.530;2024-03-25T07:13:26;6.90;99.90
46336;DHT22;31365;48.858;8.530;2024-03-25T07:15:52;7.00;99.90
46336;DHT22;31365;48.858;8.530;2024-03-25T07:18:20;7.10;99.90
46336;DHT22;31365;48.858;8.530;2024-03-25T07:20:47;7.30;99.90
46336;DHT22;31365;48.858;8.530;2024-03-25T07:23:13;7.30;99.90
46336;DHT22;31365;48.858;8.530;2024-03-25T07:25:40;7.50;99.90
46336;DHT22;31365;48.858;8.530;2024-03-25T07:28:06;7.60;99.90
46336;DHT22;31365;48.858;8.530;2024-03-25T07:30:33;7.60;99.90
46336;DHT22;31365;48.858;8.530;2024-03-25T07:33:00;7.80;99.90
46336;DHT22;31365;48.858;8.530;2024-03-25T07:35:28;7.90;99.90
46336;DHT22;31365;48.858;8.530;2024-03-25T07:37:54;7.90;99.90
46336;DHT22;31365;48.858;8.530;2024-03-25T07:40:21;7.80;99.90
46336;DHT22;31365;48.858;8.530;2024-03-25T07:42:48;7.70;99.90
46336;DHT22;31365;48.858;8.530;2024-03-25T07:45:15;7.60;99.90
46336;DHT22;31365;48.858;8.530;2024-03-25T07:47:42;7.60;99.90
46336;DHT22;31365;48.858;8.530;2024-03-25T07:50:08;7.70;99.90
46336;DHT22;31365;48.858;8.530;2024-03-25T07:52:36;7.80;99.90
46336;DHT22;31365;48.858;8.530;2024-03-25T07:55:04;7.80;99.90
46336;DHT22;31365;48.858;8.530;2024-03-25T07:57:30;7.90;99.90
46336;DHT22;31365;48.858;8.530;2024-03-25T07:59:57;7.90;99.90
46336;DHT22;31365;48.858;8.530;2024-03-25T08:02:23;8.00;99.90
46336;DHT22;31365;48.858;8.530;2024-03-25T08:04:49;8.10;99.90
46336;DHT22;31365;48.858;8.530;2024-03-25T08:07:16;8.10;99.90
46336;DHT22;31365;48.858;8.530;2024-03-25T08:09:44;8.30;99.90
46336;DHT22;31365;48.858;8.530;2024-03-25T08:12:10;8.40;99.90
46336;DHT22;31365;48.858;8.530;2024-03-25T08:14:37;8.50;99.90
46336;DHT22;31365;48.858;8.530;2024-03-25T08:17:04;8.50;99.90
46336;DHT22;31365;48.858;8.530;2024-03-25T08:19:31;8.60;99.90
46336;DHT22;31365;48.858;8.530;2024-03-25T08:21:58;8.50;99.90
46336;DHT22;31365;48.858;8.530;2024-03-25T08:24:25;8.50;99.90
46336;DHT22;31365;48.858;8.530;2024-03-25T08:26:53;8.40;99.90
46336;DHT22;31365;48.858;8.530;2024-03-25T08:29:19;8.50;99.90
46336;DHT22;31365;48.858;8.530;2024-03-25T08:31:46;8.50;99.90
46336;DHT22;31365;48.858;8.530;2024-03-25T08:34:12;8.60;99.90
46336;DHT22;31365;48.858;8.530;2024-03-25T08:36:39;8.70;99.90
46336;DHT22;31365;48.858;8.530;2024-03-25T08:39:05;8.80;99.90
46336;DHT22;31365;48.858;8.530;2024-03-25T08:41:32;8.80;99.90
46336;DHT22;31365;48.858;8.530;2024-03-25T08:44:00;8.90;99.90
46336;DHT22;31365;48.858;8.530;2024-03-25T08:46:27;9.00;99.90
46336;DHT22;31365;48.858;8.530;2024-03-25T08:48:57;9.00;99.90
46336;DHT22;31365;48.858;8.530;2024-03-25T08:51:23;9.00;99.90
46336;DHT22;31365;48.858;8.530;2024-03-25T08:53:50;9.10;99.90
46336;DHT22;31365;48.858;8.530;2024-03-25T08:56:17;9.10;99.90
46336;DHT22;31365;48.858;8.530;2024-03-25T08:58:43;9.10;99.90
46336;DHT22;31365;48.858;8.530;2024-03-25T09:01:11;9.10;99.90
46336;DHT22;31365;48.858;8.530;2024-03-25T09:03:38;9.30;99.90
46336;DHT22;31365;48.858;8.530;2024-03-25T09:06:04;9.50;99.90
46336;DHT22;31365;48.858;8.530;2024-03-25T09:08:32;9.70;99.90
46336;DHT22;31365;48.858;8.530;2024-03-25T09:10:58;9.90;99.90
46336;DHT22;31365;48.858;8.530;2024-03-25T09:13:31;10.10;99.90
46336;DHT22;31365;48.858;8.530;2024-03-25T09:15:57;10.20;99.90
46336;DHT22;31365;48.858;8.530;2024-03-25T09:18:25;10.30;99.90
46336;DHT22;31365;48.858;8.530;2024-03-25T09:20:52;10.50;99.90
46336;DHT22;31365;48.858;8.530;2024-03-25T09:23:19;10.60;99.90
46336;DHT22;31365;48.858;8.530;2024-03-25T09:25:52;10.70;99.90
46336;DHT22;31365;48.858;8.530;2024-03-25T09:28:19;10.70;99.90
46336;DHT22;31365;48.858;8.530;2024-03-25T09:30:47;10.70;99.90
46336;DHT22;31365;48.858;8.530;2024-03-25T09:33:13;10.70;99.90
46336;DHT22;31365;48.858;8.530;2024-03-25T09:35:41;10.80;99.90
46336;DHT22;31365;48.858;8.530;2024-03-25T09:38:08;11.00;99.90
46336;DHT22;31365;48.858;8.530;2024-03-25T09:40:35;11.10;99.90
46336;DHT22;31365;48.858;8.530;2024-03-25T09:43:04;11.20;99.90
46336;DHT22;31365;48.858;8.530;2024-03-25T09:45:39;11.20;99.90
46336;DHT22;31365;48.858;8.530;2024-03-25T09:48:07;11.30;99.90
46336;DHT22;31365;48.858;8.530;2024-03-25T09:50:35;11.30;99.90
46336;DHT22;31365;48.858;8.530;2024-03-25T09:53:04;11.30;99.90
46336;DHT22;31365;48.858;8.530;2024-03-25T09:55:31;11.30;99.90
46336;DHT22;31365;48.858;8.530;2024-03-25T09:57:58;11.20;99.90
46336;DHT22;31365;48.858;8.530;2024-03-25T10:00:26;11.10;99.90
46336;DHT22;31365;48.858;8.530;2024-03-25T10:02:52;11.10;99.90
46336;DHT22;31365;48.858;8.530;2024-03-25T10:05:20;11.10;99.90
46336;DHT22;31365;48.858;8.530;2024-03-25T10:07:47;11.10;99.90
46336;DHT22;31365;48.858;8.530;2024-03-25T10:10:19;11.10;99.90
46336;DHT22;31365;48.858;8.530;2024-03-25T10:12:46;11.00;99.90
46336;DHT22;31365;48.858;8.530;2024-03-25T10:15:16;11.00;99.90
46336;DHT22;31365;48.858;8.530;2024-03-25T10:17:42;11.10;99.90
46336;DHT22;31365;48.858;8.530;2024-03-25T10:20:14;11.20;99.90
46336;DHT22;31365;48.858;8.530;2024-03-25T10:22:41;11.60;99.90
46336;DHT22;31365;48.858;8.530;2024-03-25T10:25:21;11.80;99.90
46336;DHT22;31365;48.858;8.530;2024-03-25T10:27:55;12.10;99.90
46336;DHT22;31365;48.858;8.530;2024-03-25T10:30:23;12.30;99.90
46336;DHT22;31365;48.858;8.530;2024-03-25T10:32:59;12.50;99.90
46336;DHT22;31365;48.858;8.530;2024-03-25T10:35:26;12.70;99.90
46336;DHT22;31365;48.858;8.530;2024-03-25T10:37:58;12.90;99.90
46336;DHT22;31365;48.858;8.530;2024-03-25T10:40:30;13.10;99.90
46336;DHT22;31365;48.858;8.530;2024-03-25T10:43:01;13.40;99.90
46336;DHT22;31365;48.858;8.530;2024-03-25T10:45:30;13.60;99.90
46336;DHT22;31365;48.858;8.530;2024-03-25T10:48:02;13.60;99.90
46336;DHT22;31365;48.858;8.530;2024-03-25T10:50:35;13.20;99.90
46336;DHT22;31365;48.858;8.530;2024-03-25T10:53:04;13.10;99.90
46336;DHT22;31365;48.858;8.530;2024-03-25T10:55:35;13.00;99.90
46336;DHT22;31365;48.858;8.530;2024-03-25T10:58:04;12.90;99.90
46336;DHT22;31365;48.858;8.530;2024-03-25T11:00:31;12.90;99.90
46336;DHT22;31365;48.858;8.530;2024-03-25T11:02:59;13.20;99.90
46336;DHT22;31365;48.858;8.530;2024-03-25T11:05:27;14.00;99.90
46336;DHT22;31365;48.858;8.530;2024-03-25T11:07:54;14.70;99.90
46336;DHT22;31365;48.858;8.530;2024-03-25T11:10:29;15.30;99.90
46336;DHT22;31365;48.858;8.530;2024-03-25T11:12:57;16.00;99.90
46336;DHT22;31365;48.858;8.530;2024-03-25T11:15:23;16.10;99.90
46336;DHT22;31365;48.858;8.530;2024-03-25T11:17:51;16.40;99.90
46336;DHT22;31365;48.858;8.530;2024-03-25T11:20:20;16.80;99.90
46336;DHT22;31365;48.858;8.530;2024-03-25T11:22:50;16.80;99.90
46336;DHT22;31365;48.858;8.530;2024-03-25T11:25:19;16.60;99.90
46336;DHT22;31365;48.858;8.530;2024-03-25T11:27:47;17.20;99.90
46336;DHT22;31365;48.858;8.530;2024-03-25T11:30:15;17.20;99.90
46336;DHT22;31365;48.858;8.530;2024-03-25T11:32:46;17.20;99.90
46336;DHT22;31365;48.858;8.530;2024-03-25T11:35:20;17.70;99.90
46336;DHT22;31365;48.858;8.530;2024-03-25T11:37:48;18.00;99.90
46336;DHT22;31365;48.858;8.530;2024-03-25T11:40:15;18.40;99.90
46336;DHT22;31365;48.858;8.530;2024-03-25T11:42:43;17.90;99.90
46336;DHT22;31365;48.858;8.530;2024-03-25T11:45:16;17.40;99.90
46336;DHT22;31365;48.858;8.530;2024-03-25T11:47:44;16.90;99.30
46336;DHT22;31365;48.858;8.530;2024-03-25T11:50:18;16.90;99.20
46336;DHT22;31365;48.858;8.530;2024-03-25T11:52:49;17.00;99.80
46336;DHT22;31365;48.858;8.530;2024-03-25T11:55:16;16.80;99.90
46336;DHT22;31365;48.858;8.530;2024-03-25T11:57:44;16.30;99.30
46336;DHT22;31365;48.858;8.530;2024-03-25T12:00:11;16.60;99.50
46336;DHT22;31365;48.858;8.530;2024-03-25T12:02:44;17.10;99.10
46336;DHT22;31365;48.858;8.530;2024-03-25T12:05:13;17.10;99.20
46336;DHT22;31365;48.858;8.530;2024-03-25T12:07:39;16.90;98.60
46336;DHT22;31365;48.858;8.530;2024-03-25T12:10:06;16.70;99.10
46336;DHT22;31365;48.858;8.530;2024-03-25T12:12:53;16.80;99.80
46336;DHT22;31365;48.858;8.530;2024-03-25T12:15:21;18.20;99.20
46336;DHT22;31365;48.858;8.530;2024-03-25T12:17:49;19.40;96.40
46336;DHT22;31365;48.858;8.530;2024-03-25T12:20:17;20.40;94.70
46336;DHT22;31365;48.858;8.530;2024-03-25T12:22:44;21.00;93.10
46336;DHT22;31365;48.858;8.530;2024-03-25T12:25:11;21.60;93.00
46336;DHT22;31365;48.858;8.530;2024-03-25T12:27:38;21.20;89.60
46336;DHT22;31365;48.858;8.530;2024-03-25T12:30:07;21.00;90.10
46336;DHT22;31365;48.858;8.530;2024-03-25T12:32:38;20.10;90.70
46336;DHT22;31365;48.858;8.530;2024-03-25T12:35:09;18.80;92.70
46336;DHT22;31365;48.858;8.530;2024-03-25T12:37:37;18.40;94.00
46336;DHT22;31365;48.858;8.530;2024-03-25T12:40:05;19.10;93.80
46336;DHT22;31365;48.858;8.530;2024-03-25T12:42:33;20.00;92.90
46336;DHT22;31365;48.858;8.530;2024-03-25T12:45:00;20.60;91.00
46336;DHT22;31365;48.858;8.530;2024-03-25T12:47:26;20.90;90.70
46336;DHT22;31365;48.858;8.530;2024-03-25T12:49:53;20.50;90.60
46336;DHT22;31365;48.858;8.530;2024-03-25T12:52:20;20.20;90.40
46336;DHT22;31365;48.858;8.530;2024-03-25T12:54:47;19.50;90.90
46336;DHT22;31365;48.858;8.530;2024-03-25T12:57:13;19.60;90.40
46336;DHT22;31365;48.858;8.530;2024-03-25T12:59:40;19.50;90.90
46336;DHT22;31365;48.858;8.530;2024-03-25T13:02:09;19.30;91.40
46336;DHT22;31365;48.858;8.530;2024-03-25T13:04:37;19.20;89.80
46336;DHT22;31365;48.858;8.530;2024-03-25T13:07:04;18.90;91.00
46336;DHT22;31365;48.858;8.530;2024-03-25T13:09:33;18.50;91.50
46336;DHT22;31365;48.858;8.530;2024-03-25T13:12:00;19.10;92.10
46336;DHT22;31365;48.858;8.530;2024-03-25T13:14:27;20.20;90.40
46336;DHT22;31365;48.858;8.530;2024-03-25T13:16:53;21.10;87.70
46336;DHT22;31365;48.858;8.530;2024-03-25T13:19:20;22.00;85.80
46336;DHT22;31365;48.858;8.530;2024-03-25T13:21:46;22.50;84.70
46336;DHT22;31365;48.858;8.530;2024-03-25T13:24:13;21.80;83.40
46336;DHT22;31365;48.858;8.530;2024-03-25T13:26:41;21.00;81.60
46336;DHT22;31365;48.858;8.530;2024-03-25T13:29:07;20.90;83.90
46336;DHT22;31365;48.858;8.530;2024-03-25T13:31:35;22.00;82.20
46336;DHT22;31365;48.858;8.530;2024-03-25T13:34:02;23.20;78.70
46336;DHT22;31365;48.858;8.530;2024-03-25T13:36:28;24.00;74.40
46336;DHT22;31365;48.858;8.530;2024-03-25T13:38:55;25.10;71.90
46336;DHT22;31365;48.858;8.530;2024-03-25T13:41:21;25.60;70.80
46336;DHT22;31365;48.858;8.530;2024-03-25T13:43:49;25.80;70.20
46336;DHT22;31365;48.858;8.530;2024-03-25T13:46:16;26.10;68.40
46336;DHT22;31365;48.858;8.530;2024-03-25T13:48:42;26.60;68.60
46336;DHT22;31365;48.858;8.530;2024-03-25T13:51:09;26.40;67.10
46336;DHT22;31365;48.858;8.530;2024-03-25T13:53:35;27.20;67.50
46336;DHT22;31365;48.858;8.530;2024-03-25T13:56:02;27.50;64.20
46336;DHT22;31365;48.858;8.530;2024-03-25T13:58:29;27.20;63.70
46336;DHT22;31365;48.858;8.530;2024-03-25T14:00:57;27.40;60.50
46336;DHT22;31365;48.858;8.530;2024-03-25T14:03:23;28.10;62.30
46336;DHT22;31365;48.858;8.530;2024-03-25T14:05:50;28.50;57.80
46336;DHT22;31365;48.858;8.530;2024-03-25T14:08:16;28.50;58.80
46336;DHT22;31365;48.858;8.530;2024-03-25T14:10:43;28.20;58.60
46336;DHT22;31365;48.858;8.530;2024-03-25T14:13:10;27.90;58.80
46336;DHT22;31365;48.858;8.530;2024-03-25T14:15:36;27.50;56.80
46336;DHT22;31365;48.858;8.530;2024-03-25T14:18:05;27.70;59.00
46336;DHT22;31365;48.858;8.530;2024-03-25T14:20:32;28.40;58.10
46336;DHT22;31365;48.858;8.530;2024-03-25T14:22:58;28.20;57.60
46336;DHT22;31365;48.858;8.530;2024-03-25T14:25:26;28.00;57.70
46336;DHT22;31365;48.858;8.530;2024-03-25T14:27:52;27.30;58.00
46336;DHT22;31365;48.858;8.530;2024-03-25T14:30:20;27.10;58.50
46336;DHT22;31365;48.858;8.530;2024-03-25T14:32:46;26.60;58.10
46336;DHT22;31365;48.858;8.530;2024-03-25T14:35:14;26.90;58.30
46336;DHT22;31365;48.858;8.530;2024-03-25T14:37:41;26.40;58.50
46336;DHT22;31365;48.858;8.530;2024-03-25T14:40:07;25.50;58.90
46336;DHT22;31365;48.858;8.530;2024-03-25T14:42:34;24.10;61.00
46336;DHT22;31365;48.858;8.530;2024-03-25T14:45:01;22.40;63.80
46336;DHT22;31365;48.858;8.530;2024-03-25T14:47:28;20.60;66.40
46336;DHT22;31365;48.858;8.530;2024-03-25T14:49:54;19.50;69.00
46336;DHT22;31365;48.858;8.530;2024-03-25T14:52:22;18.70;70.30
46336;DHT22;31365;48.858;8.530;2024-03-25T14:54:48;18.00;74.10
46336;DHT22;31365;48.858;8.530;2024-03-25T14:57:15;17.20;74.20
46336;DHT22;31365;48.858;8.530;2024-03-25T14:59:41;16.60;76.10
46336;DHT22;31365;48.858;8.530;2024-03-25T15:02:08;16.40;78.30
46336;DHT22;31365;48.858;8.530;2024-03-25T15:04:34;15.90;78.90
46336;DHT22;31365;48.858;8.530;2024-03-25T15:07:00;15.40;78.70
46336;DHT22;31365;48.858;8.530;2024-03-25T15:09:28;15.30;77.70
46336;DHT22;31365;48.858;8.530;2024-03-25T15:11:54;15.10;79.30
46336;DHT22;31365;48.858;8.530;2024-03-25T15:14:21;15.00;81.10
46336;DHT22;31365;48.858;8.530;2024-03-25T15:16:48;14.80;81.00
46336;DHT22;31365;48.858;8.530;2024-03-25T15:19:15;14.60;82.60
46336;DHT22;31365;48.858;8.530;2024-03-25T15:21:41;14.50;80.30
46336;DHT22;31365;48.858;8.530;2024-03-25T15:24:07;14.30;80.90
46336;DHT22;31365;48.858;8.530;2024-03-25T15:26:36;14.20;82.60
46336;DHT22;31365;48.858;8.530;2024-03-25T15:29:03;14.00;80.60
46336;DHT22;31365;48.858;8.530;2024-03-25T15:31:29;13.90;82.10
46336;DHT22;31365;48.858;8.530;2024-03-25T15:33:56;13.90;83.10
46336;DHT22;31365;48.858;8.530;2024-03-25T15:36:22;13.70;82.70
46336;DHT22;31365;48.858;8.530;2024-03-25T15:38:48;13.70;83.40
46336;DHT22;31365;48.858;8.530;2024-03-25T15:41:15;13.60;82.80